Past Weather in Perth, Western Australia, Australia — Yesterday or Further Back
Home   Weather   Australia   Perth   Past weeks
Flag for Australia

Past Weather in Perth, Western Australia, Australia — Yesterday and Last 2 Weeks

Currently: 61 °F. Clear. (Weather station: Belmont Perth Airport, Australia). See more current weather

Past Weather in Perth — Graph

°F

Perth Temperature Yesterday

Maximum temperature yesterday: 72 °F (at 3:00 pm)
Minimum temperature yesterday: 48 °F (at 11:30 pm)
Average temperature yesterday: 63 °F

High & Low Weather Summary for the Past Weeks

 TemperatureHumidityPressure
High91 °F (Oct 15, 3:30 pm)100% (Oct 4, 10:00 pm)30.24 "Hg (Oct 4, 10:00 pm)
Low39 °F (Oct 6, 5:00 am)12% (Oct 15, 3:00 pm)29.62 "Hg (Oct 16, 12:30 am)
Average60 °F65%29.98 "Hg
* Reported Oct 3 10:00 pm — Oct 18 10:00 pm, Perth. Weather by CustomWeather, © 2021

Note: Actual official high and low records may vary slightly from our data, if they occured in-between our weather recording intervals... More about our weather records

Perth Weather History for the Previous 24 Hours

Scroll right to see more
 ConditionsComfort  
Time TempWeatherWind HumidityBarometerVisibility
10:00 pm
Mon, Oct 18
59 °FClear.6 mph82%29.68 "Hg10 mi
9:30 pm59 °FClear.3 mph82%29.68 "Hg10 mi
8:30 pm63 °FPassing clouds.5 mph73%29.71 "HgN/A
8:00 pm64 °FClear.6 mph68%29.68 "Hg10 mi
7:30 pm66 °FClear.7 mph60%29.71 "Hg10 mi
7:00 pm66 °FClear.9 mph60%29.71 "Hg10 mi
6:30 pm68 °FClear.8 mph53%29.68 "Hg10 mi
6:00 pm70 °FSunny.8 mph50%29.68 "Hg10 mi
5:30 pm70 °FSunny.9 mph46%29.68 "Hg10 mi
5:00 pm72 °FSunny.12 mph47%29.68 "Hg10 mi
4:30 pm72 °FSunny.10 mph47%29.68 "Hg10 mi
4:00 pm73 °FSunny.10 mph47%29.71 "Hg10 mi
3:30 pm73 °FSunny.10 mph47%29.71 "Hg10 mi
3:00 pm75 °FSunny.13 mph44%29.71 "Hg10 mi
2:30 pm75 °FSunny.14 mph44%29.71 "Hg10 mi
2:00 pm75 °FSunny.14 mph41%29.74 "Hg10 mi
1:30 pm77 °FSunny.9 mph42%29.74 "Hg10 mi
1:00 pm75 °FPassing clouds.13 mph39%29.77 "HgN/A
12:30 pm75 °FSunny.14 mph39%29.77 "Hg10 mi
12:00 pm75 °FPassing clouds.13 mph41%29.77 "HgN/A
11:30 am72 °FPassing clouds.13 mph47%29.80 "HgN/A
11:00 am72 °FPassing clouds.12 mph47%29.83 "HgN/A
10:30 am70 °FPassing clouds.13 mph46%29.83 "HgN/A
10:00 am68 °FPassing clouds.12 mph49%29.83 "HgN/A
9:30 am66 °FScattered clouds.12 mph52%29.86 "HgN/A
9:00 am66 °FScattered clouds.10 mph56%29.86 "HgN/A
8:30 am64 °FPassing clouds.6 mph64%29.86 "HgN/A
7:00 am55 °FScattered clouds.9 mph77%29.86 "HgN/A
6:30 am55 °FPartly sunny.7 mph82%29.83 "HgN/A
6:00 am52 °FPassing clouds.6 mph88%29.83 "HgN/A
5:30 am50 °FPassing clouds.7 mph88%29.80 "HgN/A
5:00 am50 °FClear.7 mph88%29.80 "Hg10 mi
4:30 am50 °FClear.7 mph88%29.80 "Hg10 mi
4:00 am52 °FClear.6 mph88%29.80 "Hg10 mi
3:30 am50 °FClear.7 mph94%29.77 "Hg10 mi
2:30 am50 °FClear.5 mph88%29.77 "Hg10 mi
2:00 am48 °FClear.5 mph94%29.80 "Hg10 mi
1:30 am50 °FClear.6 mph88%29.80 "Hg10 mi
1:00 am50 °FPassing clouds.6 mph94%29.80 "HgN/A
12:30 am50 °FPassing clouds.6 mph94%29.80 "HgN/A
12:00 am48 °FPassing clouds.1 mph94%29.83 "HgN/A
11:30 pm
Sun, Oct 17
48 °FClear.6 mph94%29.83 "Hg10 mi
11:00 pm50 °FClear.2 mph88%29.83 "Hg10 mi
Weather by CustomWeather, © 2021

See weather overview